Latest Coastal Weather Observations for Rowley Shoals

IDW60701

Issued at 5:12 am WST Wednesday 22 April 2015 (issued every 10 minutes, with the page automatically refreshed every 10 minutes)

About coastal observations | Map of coastal stations | Coastal observations for WA | Marine services | Other Formats
Station Details ID: 200713 Name: ROWLEY SHOALS Lat: -17.52 Lon: 118.95 Height: 0.0 m
Data from the previous 72 hours. | See also: Recent months for locations in Western Australia
Date/Time
WST
Temp

°C
Wind Pressure Rain
since 9am
mm
Weather Cloud Vis
km
Sea
Height
m
Swell
Dir
 
Speed
knots
Gust
knots
hPa Trend Height
m
Period
s
Dir
22/05:00am - ENE 23 27 1006.1 - - - - - - - - -
22/04:30am - ENE 22 27 1006.3 - - - - - - - - -
22/04:00am - ENE 21 24 1006.4 - - - - - - - - -
22/03:30am - ENE 21 25 1006.5 - - - - - - - - -
22/03:00am - ENE 21 25 1006.5 - - - - - - - - -
22/02:30am - NE 18 24 1006.7 - - - - - - - - -
22/02:27am - NE 16 24 1006.6 - - - - - - - - -
22/02:00am - NNE 11 14 1006.6 - - - - - - - - -
22/01:30am - ENE 13 17 1007.1 - - - - - - - - -
22/01:00am - NE 14 19 1007.4 - - - - - - - - -
22/12:30am - ENE 10 15 1007.4 - - - - - - - - -
22/12:22am - NE 14 23 1007.4 - - - - - - - - -
22/12:17am - NE 21 30 1007.3 - - - - - - - - -
22/12:13am - ENE 23 30 1007.2 - - - - - - - - -
22/12:00am - E 21 25 1007.0 - - - - - - - - -
 
Date/Time
WST
Temp

°C
Wind Pressure Rain
since 9am
mm
Weather Cloud Vis
km
Sea
Height
m
Swell
Dir
 
Speed
knots
Gust
knots
hPa Trend Height
m
Period
s
Dir
21/11:30pm - E 21 24 1007.4 - - - - - - - - -
21/11:00pm - E 19 21 1007.5 - - - - - - - - -
21/10:30pm - E 18 21 1007.7 - - - - - - - - -
21/10:00pm - ENE 20 22 1007.9 - - - - - - - - -
21/09:30pm - ENE 18 21 1008.3 - - - - - - - - -
21/09:00pm - ENE 17 21 1008.3 - - - - - - - - -
21/08:30pm - ENE 18 21 1008.3 - - - - - - - - -
21/08:00pm - ENE 20 23 1008.2 - - - - - - - - -
21/07:30pm - NE 21 24 1007.3 - - - - - - - - -
21/07:00pm - NE 19 22 1006.9 - - - - - - - - -
21/06:30pm - NE 18 21 1007.0 - - - - - - - - -
21/06:00pm - NNE 17 19 1006.4 - - - - - - - - -
21/05:30pm - NNE 19 22 1006.1 - - - - - - - - -
21/05:00pm - NE 19 22 1006.1 - - - - - - - - -
21/04:30pm - ENE 13 15 1006.3 - - - - - - - - -
21/04:00pm - NE 12 16 1006.1 - - - - - - - - -
21/03:30pm - ENE 7 9 1006.3 - - - - - - - - -
21/03:00pm - ENE 8 9 1006.4 - - - - - - - - -
21/02:30pm - NE 7 10 1007.0 - - - - - - - - -
21/02:00pm - NW 8 11 1007.4 - - - - - - - - -
21/01:30pm - NNW 13 19 1007.6 - - - - - - - - -
21/01:00pm - NW 13 17 1008.0 - - - - - - - - -
21/12:30pm - N 17 23 1007.4 - - - - - - - - -
21/12:17pm - NNE 19 32 1007.8 - - - - - - - - -
21/12:14pm - NE 18 32 1007.7 - - - - - - - - -
21/12:11pm - NE 16 31 1007.9 - - - - - - - - -
21/12:00pm - ENE 16 22 1007.7 - - - - - - - - -
21/11:55am - ENE 17 23 1007.5 - - - - - - - - -
21/11:30am - NE 22 27 1008.4 - - - - - - - - -
21/11:00am - NE 26 32 1007.7 - - - - - - - - -
21/10:30am - NE 26 31 1007.6 - - - - - - - - -
21/10:00am - NE 29 33 1007.6 - - - - - - - - -
21/09:30am - NE 30 36 1007.9 - - - - - - - - -
21/09:00am - NE 30 37 1007.8 - - - - - - - - -
21/08:39am - NE 29 39 1007.6 - - - - - - - - -
21/08:30am - NNE 29 35 1008.1 - - - - - - - - -
21/08:26am - NE 27 34 1007.9 - - - - - - - - -
21/08:00am - NE 21 33 1008.2 - - - - - - - - -
21/07:58am - NE 21 33 1008.5 - - - - - - - - -
21/07:30am - ENE 28 33 1007.7 - - - - - - - - -
21/07:00am - ENE 29 33 1007.6 - - - - - - - - -
21/06:30am - ENE 30 36 1007.5 - - - - - - - - -
21/06:00am - NE 28 33 1007.1 - - - - - - - - -
21/05:30am - ENE 26 34 1007.1 - - - - - - - - -
21/05:16am - ENE 28 34 1007.3 - - - - - - - - -
21/05:04am - NE 33 41 1007.4 - - - - - - - - -
21/05:00am - NE 36 41 1007.3 - - - - - - - - -
21/04:38am - NE 23 37 1006.9 - - - - - - - - -
21/04:31am - NE 24 35 1008.0 - - - - - - - - -
21/04:30am - NE 24 35 1007.8 - - - - - - - - -
21/04:22am - ENE 23 35 1007.5 - - - - - - - - -
21/04:00am - NE 27 34 1007.6 - - - - - - - - -
21/03:30am - ENE 25 30 1008.1 - - - - - - - - -
21/03:00am - NE 28 36 1008.0 - - - - - - - - -
21/02:30am - NE 26 32 1008.1 - - - - - - - - -
21/02:00am - NE 26 30 1008.4 - - - - - - - - -
21/01:30am - ENE 23 29 1009.0 - - - - - - - - -
21/01:00am - ENE 23 28 1009.2 - - - - - - - - -
21/12:30am - ENE 23 27 1010.3 - - - - - - - - -
21/12:00am - NE 24 29 1010.2 - - - - - - - - -
 
Date/Time
WST
Temp

°C
Wind Pressure Rain
since 9am
mm
Weather Cloud Vis
km
Sea
Height
m
Swell
Dir
 
Speed
knots
Gust
knots
hPa Trend Height
m
Period
s
Dir
20/11:30pm - ENE 23 28 1009.9 - - - - - - - - -
20/11:00pm - NE 25 28 1009.6 - - - - - - - - -
20/10:30pm - NNE 24 27 1010.4 - - - - - - - - -
20/10:00pm - NNE 25 29 1010.3 - - - - - - - - -
20/09:30pm - NE 19 25 1010.9 - - - - - - - - -
20/09:00pm - NE 19 22 1011.2 - - - - - - - - -
20/08:30pm - ENE 18 22 1011.6 - - - - - - - - -
20/08:00pm - NE 15 19 1011.7 - - - - - - - - -
20/07:54pm - ENE 10 17 1011.7 - - - - - - - - -
20/07:30pm - NNE 5 8 1011.7 - - - - - - - - -
20/07:00pm - ESE 15 18 1011.5 - - - - - - - - -
20/06:30pm - ESE 17 20 1010.0 - - - - - - - - -
20/06:00pm - ESE 17 20 1009.7 - - - - - - - - -
20/05:30pm - ESE 15 17 1009.6 - - - - - - - - -
20/05:00pm - E 16 18 1009.5 - - - - - - - - -
20/04:30pm - ENE 17 20 1009.3 - - - - - - - - -
20/04:00pm - ENE 14 17 1009.2 - - - - - - - - -
20/03:30pm - ENE 20 25 1009.0 - - - - - - - - -
20/03:00pm - ENE 16 29 1008.9 - - - - - - - - -
20/02:59pm - ENE 15 27 1008.9 - - - - - - - - -
20/02:30pm - E 14 17 1009.2 - - - - - - - - -
20/02:00pm - E 17 19 1009.0 - - - - - - - - -
20/01:30pm - E 17 21 1009.3 - - - - - - - - -
20/01:20pm - ENE 21 25 1009.3 - - - - - - - - -
20/01:00pm - NE 20 27 1009.3 - - - - - - - - -
20/12:30pm - NNE 22 28 1010.1 - - - - - - - - -
20/12:26pm - NNE 23 28 1010.2 - - - - - - - - -
20/12:02pm - NNE 31 42 1010.3 - - - - - - - - -
20/12:00pm - NNE 29 42 1010.0 - - - - - - - - -
20/11:58am - NE 27 42 1009.4 - - - - - - - - -
20/11:55am - NE 22 38 1009.8 - - - - - - - - -
20/11:53am - ENE 21 25 1010.2 - - - - - - - - -
20/11:30am - ENE 18 23 1010.0 - - - - - - - - -
20/11:00am - E 19 23 1010.5 - - - - - - - - -
20/10:30am - E 21 25 1010.5 - - - - - - - - -
20/10:00am - E 23 27 1010.5 - - - - - - - - -
20/09:53am - ENE 24 29 1011.1 - - - - - - - - -
20/09:30am - ENE 23 29 1011.4 - - - - - - - - -
20/09:07am - ENE 19 26 1010.9 - - - - - - - - -
20/09:00am - E 22 27 1010.8 - - - - - - - - -
20/08:30am - ENE 25 34 1010.6 - - - - - - - - -
20/08:00am - ENE 29 35 1010.4 - - - - - - - - -
20/07:57am - E 30 35 1010.1 - - - - - - - - -
20/07:30am - E 28 33 1009.4 - - - - - - - - -
20/07:00am - E 30 34 1009.4 - - - - - - - - -
20/06:30am - E 30 35 1009.5 - - - - - - - - -
20/06:00am - E 29 34 1009.6 - - - - - - - - -
20/05:30am - ESE 28 33 1009.5 - - - - - - - - -
20/05:00am - E 29 35 1009.1 - - - - - - - - -
20/04:30am - ESE 22 27 1009.7 - - - - - - - - -
20/04:00am - ESE 27 37 1009.1 - - - - - - - - -
20/03:58am - ESE 28 37 1009.7 - - - - - - - - -
20/03:30am - E 26 33 1010.0 - - - - - - - - -
20/03:00am - E 30 34 1009.6 - - - - - - - - -
20/02:30am - ESE 32 39 1009.8 - - - - - - - - -
20/02:00am - ESE 31 37 1010.0 - - - - - - - - -
20/01:30am - ESE 32 38 1010.7 - - - - - - - - -
20/01:00am - ESE 31 37 1010.9 - - - - - - - - -
20/12:30am - ESE 32 37 1011.4 - - - - - - - - -
20/12:00am - ESE 30 36 1011.6 - - - - - - - - -
 
Date/Time
WST
Temp

°C
Wind Pressure Rain
since 9am
mm
Weather Cloud Vis
km
Sea
Height
m
Swell
Dir
 
Speed
knots
Gust
knots
hPa Trend Height
m
Period
s
Dir
19/11:30pm - ESE 30 36 1011.6 - - - - - - - - -
19/11:00pm - ESE 28 34 1011.9 - - - - - - - - -
19/10:30pm - ESE 29 34 1012.2 - - - - - - - - -
19/10:00pm - ESE 29 37 1012.2 - - - - - - - - -
19/09:30pm - ESE 29 34 1012.4 - - - - - - - - -
19/09:00pm - SE 31 36 1012.0 - - - - - - - - -
19/08:30pm - ESE 29 35 1011.9 - - - - - - - - -
19/08:00pm - ESE 28 34 1011.4 - - - - - - - - -
19/07:30pm - ESE 24 28 1011.2 - - - - - - - - -
19/07:00pm - SE 19 23 1011.5 - - - - - - - - -
19/06:30pm - SE 18 20 1011.6 - - - - - - - - -
19/06:00pm - ESE 12 15 1011.2 - - - - - - - - -
19/05:30pm - SE 12 14 1010.6 - - - - - - - - -
19/05:00pm - ESE 12 14 1010.4 - - - - - - - - -
19/04:30pm - ESE 13 15 1009.6 - - - - - - - - -
19/04:00pm - E 9 11 1009.7 - - - - - - - - -
19/03:30pm - ENE 9 10 1010.1 - - - - - - - - -
19/03:00pm - ENE 10 11 1010.0 - - - - - - - - -
19/02:30pm - ENE 11 12 1010.5 - - - - - - - - -
19/02:00pm - ENE 11 12 1010.5 - - - - - - - - -
19/01:30pm - ENE 12 14 1011.0 - - - - - - - - -
19/01:00pm - ENE 12 14 1011.3 - - - - - - - - -
19/12:30pm - E 13 15 1011.5 - - - - - - - - -
19/12:00pm - E 14 17 1011.7 - - - - - - - - -
19/11:30am - E 15 18 1012.2 - - - - - - - - -
19/11:00am - E 16 19 1012.4 - - - - - - - - -
19/10:30am - E 16 19 1012.6 - - - - - - - - -
19/10:00am - E 18 21 1012.5 - - - - - - - - -
19/09:30am - E 18 21 1012.6 - - - - - - - - -
19/09:00am - ESE 19 23 1012.2 - - - - - - - - -
19/08:30am - ESE 21 24 1012.0 - - - - - - - - -
19/08:00am - ESE 22 25 1011.5 - - - - - - - - -
19/07:30am - ESE 22 25 1011.2 - - - - - - - - -
19/07:00am - ESE 21 25 1011.0 - - - - - - - - -
19/06:30am - ESE 20 24 1011.0 - - - - - - - - -
19/06:00am - ESE 20 24 1011.1 - - - - - - - - -
19/05:30am - ESE 21 25 1010.8 - - - - - - - - -

Other Formats:

Comma delimited format used in spreadsheet applications
http://www.bom.gov.au/fwo/IDW60701/IDW60701.94207.axf

JavaScript Object Notation format (JSON) in row-major order
http://www.bom.gov.au/fwo/IDW60701/IDW60701.94207.json